createdAt,value
2018-12-15T00:01:29.944Z,16.80
2018-12-15T00:03:58.107Z,15.43
2018-12-15T00:06:26.304Z,16.32
2018-12-15T00:08:54.483Z,14.60
2018-12-15T00:11:22.660Z,15.85
2018-12-15T00:13:50.832Z,17.52
2018-12-15T00:16:19.163Z,16.40
2018-12-15T00:18:47.371Z,15.50
2018-12-15T00:21:15.505Z,17.60
2018-12-15T00:23:43.682Z,18.07
2018-12-15T00:26:11.855Z,15.78
2018-12-15T00:28:40.059Z,15.05
2018-12-15T00:31:08.374Z,13.53
2018-12-15T00:33:36.551Z,14.25
2018-12-15T00:36:04.765Z,13.50
2018-12-15T00:38:33.083Z,14.28
2018-12-15T00:41:01.335Z,14.53
2018-12-15T00:43:29.491Z,15.10
2018-12-15T00:45:57.635Z,14.23
2018-12-15T00:48:26.047Z,15.28
2018-12-15T00:50:54.572Z,13.60
2018-12-15T00:53:22.711Z,12.80
2018-12-15T00:55:50.871Z,13.90
2018-12-15T00:58:19.013Z,14.07
2018-12-15T01:00:47.237Z,14.23
2018-12-15T01:03:15.682Z,15.25
2018-12-15T01:05:43.791Z,15.10
2018-12-15T01:08:12.047Z,15.58
2018-12-15T01:10:40.407Z,14.73
2018-12-15T01:13:08.627Z,13.45
2018-12-15T01:15:42.243Z,14.58
2018-12-15T01:18:10.433Z,15.93
2018-12-15T01:20:38.567Z,15.20
2018-12-15T01:23:06.710Z,14.63
2018-12-15T01:25:34.841Z,15.25
2018-12-15T01:28:03.083Z,17.45
2018-12-15T01:30:31.353Z,16.97
2018-12-15T01:32:59.570Z,17.42
2018-12-15T01:35:27.712Z,15.83
2018-12-15T01:37:55.911Z,15.10
2018-12-15T01:40:24.151Z,14.45
2018-12-15T01:42:52.327Z,15.03
2018-12-15T01:45:20.440Z,15.53
2018-12-15T01:47:48.667Z,15.43
2018-12-15T01:50:16.779Z,15.58
2018-12-15T01:52:44.937Z,15.72
2018-12-15T01:55:13.191Z,15.38
2018-12-15T01:57:41.391Z,16.10
2018-12-15T02:00:09.731Z,16.50
2018-12-15T02:02:37.996Z,16.85
2018-12-15T02:05:06.204Z,16.27
2018-12-15T02:07:34.323Z,15.05
2018-12-15T02:10:02.571Z,15.40
2018-12-15T02:12:31.295Z,16.65
2018-12-15T02:14:59.460Z,16.80
2018-12-15T02:17:33.436Z,16.75
2018-12-15T02:19:57.840Z,14.18
2018-12-15T02:22:26.035Z,15.63
2018-12-15T02:24:54.152Z,16.20
2018-12-15T02:27:22.351Z,15.40
2018-12-15T02:29:50.500Z,13.95
2018-12-15T02:32:18.672Z,16.12
2018-12-15T02:34:46.916Z,15.65
2018-12-15T02:37:15.128Z,15.47
2018-12-15T02:39:43.369Z,15.70
2018-12-15T02:42:11.575Z,14.55
2018-12-15T02:44:39.716Z,15.35
2018-12-15T02:47:07.913Z,15.15
2018-12-15T02:49:36.136Z,16.73
2018-12-15T02:52:04.335Z,15.93
2018-12-15T02:54:32.530Z,16.10
2018-12-15T02:57:00.648Z,16.35
2018-12-15T02:59:28.838Z,15.40
2018-12-15T03:01:57.031Z,16.97
2018-12-15T03:04:25.232Z,15.45
2018-12-15T03:06:53.453Z,16.20
2018-12-15T03:09:21.783Z,17.45
2018-12-15T03:11:49.991Z,15.50
2018-12-15T03:14:18.132Z,15.95
2018-12-15T03:16:57.674Z,15.55
2018-12-15T03:19:25.855Z,17.25
2018-12-15T03:21:54.031Z,18.32
2018-12-15T03:24:22.152Z,17.25
2018-12-15T03:26:50.372Z,18.10
2018-12-15T03:29:18.643Z,17.17
2018-12-15T03:31:46.765Z,17.60
2018-12-15T03:34:15.051Z,16.52
2018-12-15T03:36:43.268Z,17.60
2018-12-15T03:39:11.536Z,16.60
2018-12-15T03:41:39.776Z,17.00
2018-12-15T03:44:07.924Z,16.97
2018-12-15T03:46:36.328Z,17.57
2018-12-15T03:49:04.544Z,17.57
2018-12-15T03:51:32.777Z,17.50
2018-12-15T03:54:01.039Z,16.65
2018-12-15T03:56:29.180Z,16.87
2018-12-15T03:58:57.373Z,16.70
2018-12-15T04:01:25.511Z,15.93
2018-12-15T04:03:53.704Z,17.10
2018-12-15T04:06:21.848Z,16.00
2018-12-15T04:08:50.064Z,16.20
2018-12-15T04:11:18.297Z,17.47
2018-12-15T04:13:46.535Z,17.10
2018-12-15T04:16:14.713Z,17.00
2018-12-15T04:18:42.959Z,16.65
2018-12-15T04:21:11.129Z,17.07
2018-12-15T04:23:39.403Z,16.93
2018-12-15T04:26:07.559Z,18.48
2018-12-15T04:28:35.839Z,17.48
2018-12-15T04:31:04.056Z,15.72
2018-12-15T04:33:32.218Z,17.13
2018-12-15T04:36:07.463Z,17.92
2018-12-15T04:38:35.599Z,17.40
2018-12-15T04:41:03.739Z,17.40
2018-12-15T04:43:31.992Z,17.20
2018-12-15T04:46:00.389Z,17.77
2018-12-15T04:48:28.571Z,16.95
2018-12-15T04:50:56.707Z,16.23
2018-12-15T04:53:24.892Z,17.12
2018-12-15T04:55:53.147Z,17.10
2018-12-15T04:58:21.270Z,18.82
2018-12-15T05:00:49.448Z,17.50
2018-12-15T05:03:17.591Z,15.88
2018-12-15T05:05:45.879Z,17.12
2018-12-15T05:08:14.124Z,17.27
2018-12-15T05:10:42.319Z,16.70
2018-12-15T05:13:10.469Z,17.00
2018-12-15T05:15:38.749Z,17.52
2018-12-15T05:18:06.940Z,17.85
2018-12-15T05:20:35.162Z,17.48
2018-12-15T05:23:03.347Z,17.50
2018-12-15T05:25:31.533Z,18.95
2018-12-15T05:27:59.716Z,17.17
2018-12-15T05:30:27.912Z,15.93
2018-12-15T05:32:56.060Z,17.05
2018-12-15T05:35:24.256Z,18.35
2018-12-15T05:37:52.499Z,18.12
2018-12-15T05:40:20.656Z,16.97
2018-12-15T05:42:48.887Z,17.65
2018-12-15T05:45:17.123Z,15.65
2018-12-15T05:47:45.316Z,17.45
2018-12-15T05:50:13.587Z,17.73
2018-12-15T05:52:41.743Z,17.95
2018-12-15T05:55:09.907Z,17.35
2018-12-15T05:57:38.104Z,16.52
2018-12-15T06:00:07.380Z,16.25
2018-12-15T06:02:36.023Z,19.00
2018-12-15T06:05:05.027Z,15.65
2018-12-15T06:07:33.187Z,17.60
2018-12-15T06:10:01.331Z,16.77
2018-12-15T06:12:29.480Z,17.35
2018-12-15T06:14:57.638Z,17.75
2018-12-15T06:17:25.775Z,17.42
2018-12-15T06:19:53.923Z,18.52
2018-12-15T06:22:22.093Z,16.25
2018-12-15T06:24:50.413Z,16.80
2018-12-15T06:27:18.516Z,15.98
2018-12-15T06:29:46.689Z,17.75
2018-12-15T06:32:14.863Z,18.32
2018-12-15T06:34:43.091Z,17.20
2018-12-15T06:37:11.323Z,16.45
2018-12-15T06:39:39.492Z,16.62
2018-12-15T06:42:07.674Z,17.52
2018-12-15T06:44:35.827Z,16.97
2018-12-15T06:47:04.291Z,17.25
2018-12-15T06:49:32.755Z,15.98
2018-12-15T06:52:01.068Z,15.85
2018-12-15T06:54:29.307Z,16.65
2018-12-15T06:56:57.447Z,17.67
2018-12-15T06:59:25.612Z,16.63
2018-12-15T07:01:53.799Z,16.87
2018-12-15T07:04:21.959Z,16.60
2018-12-15T07:06:50.179Z,16.65
2018-12-15T07:09:18.315Z,15.65
2018-12-15T07:11:46.715Z,16.10
2018-12-15T07:14:14.931Z,16.35
2018-12-15T07:16:43.076Z,15.72
2018-12-15T07:19:11.247Z,16.12
2018-12-15T07:21:39.807Z,16.10
2018-12-15T07:24:07.995Z,16.00
2018-12-15T07:26:36.363Z,30.05
2018-12-15T07:29:04.788Z,39.67
2018-12-15T07:31:33.164Z,26.68
2018-12-15T07:34:01.503Z,19.65
2018-12-15T07:36:29.635Z,15.60
2018-12-15T07:38:57.784Z,15.95
2018-12-15T07:41:25.947Z,15.63
2018-12-15T07:43:54.087Z,16.12
2018-12-15T07:46:22.244Z,17.02
2018-12-15T07:48:51.541Z,15.53
2018-12-15T07:51:21.472Z,18.17
2018-12-15T07:53:49.648Z,17.42
2018-12-15T07:56:17.855Z,16.50
2018-12-15T07:58:46.005Z,16.07
2018-12-15T08:01:14.175Z,17.90
2018-12-15T08:03:42.347Z,16.53
2018-12-15T08:06:10.493Z,17.60
2018-12-15T08:08:38.851Z,17.40
2018-12-15T08:11:12.807Z,18.02
2018-12-15T08:13:45.224Z,16.87
2018-12-15T08:16:13.331Z,17.75
2018-12-15T08:18:42.502Z,19.40
2018-12-15T08:21:10.707Z,19.27
2018-12-15T08:23:38.870Z,19.32
2018-12-15T08:26:07.099Z,18.50
2018-12-15T08:31:02.743Z,19.82
2018-12-15T08:33:30.883Z,20.72
2018-12-15T08:35:59.068Z,20.17
2018-12-15T08:38:27.226Z,18.80
2018-12-15T08:40:55.379Z,18.30
2018-12-15T08:43:23.671Z,20.25
2018-12-15T08:45:51.844Z,18.25
2018-12-15T08:48:19.999Z,18.90
2018-12-15T08:50:48.839Z,19.05
2018-12-15T08:53:17.051Z,19.00
2018-12-15T08:55:45.204Z,17.10
2018-12-15T08:58:14.668Z,18.12
2018-12-15T09:00:43.607Z,17.05
2018-12-15T09:03:11.743Z,17.03
2018-12-15T09:05:39.923Z,15.95
2018-12-15T09:08:08.211Z,15.13
2018-12-15T09:10:36.356Z,17.37
2018-12-15T09:13:04.532Z,16.10
2018-12-15T09:15:32.679Z,17.90
2018-12-15T09:18:00.883Z,16.60
2018-12-15T09:20:29.187Z,15.63
2018-12-15T09:22:57.427Z,16.93
2018-12-15T09:25:25.603Z,16.05
2018-12-15T09:27:53.759Z,15.85
2018-12-15T09:30:21.971Z,16.30
2018-12-15T09:32:50.187Z,17.05
2018-12-15T09:35:18.347Z,16.95
2018-12-15T09:37:46.512Z,17.37
2018-12-15T09:40:14.803Z,17.07
2018-12-15T09:42:42.987Z,16.30
2018-12-15T09:45:11.167Z,16.50
2018-12-15T09:47:39.439Z,18.85
2018-12-15T09:50:07.812Z,15.18
2018-12-15T09:52:36.014Z,17.12
2018-12-15T09:55:05.006Z,15.98
2018-12-15T09:57:33.246Z,16.50
2018-12-15T10:00:01.664Z,17.62
2018-12-15T10:02:29.947Z,17.32
2018-12-15T10:04:58.192Z,19.32
2018-12-15T10:07:26.369Z,17.20
2018-12-15T10:09:54.547Z,17.20
2018-12-15T10:12:22.687Z,18.48
2018-12-15T10:14:50.965Z,18.75
2018-12-15T10:17:19.072Z,18.98
2018-12-15T10:19:47.433Z,18.30
2018-12-15T10:22:15.560Z,17.55
2018-12-15T10:24:43.808Z,18.40
2018-12-15T10:27:12.032Z,18.92
2018-12-15T10:29:45.647Z,19.57
2018-12-15T10:32:19.291Z,18.60
2018-12-15T10:34:47.451Z,18.13
2018-12-15T10:37:15.624Z,18.27
2018-12-15T10:39:43.845Z,18.62
2018-12-15T10:42:11.975Z,18.60
2018-12-15T10:44:40.143Z,19.90
2018-12-15T10:47:08.314Z,18.00
2018-12-15T10:49:36.517Z,19.10
2018-12-15T10:52:04.663Z,19.50
2018-12-15T10:54:33.027Z,18.12
2018-12-15T10:57:01.175Z,19.27
2018-12-15T10:59:29.379Z,19.25
2018-12-15T11:01:57.539Z,17.67
2018-12-15T11:04:26.094Z,18.98
2018-12-15T11:06:54.273Z,20.55
2018-12-15T11:09:29.331Z,19.80
2018-12-15T11:11:57.608Z,19.70
2018-12-15T11:14:25.783Z,19.50
2018-12-15T11:16:54.042Z,19.10
2018-12-15T11:19:22.276Z,17.90
2018-12-15T11:21:50.471Z,18.53
2018-12-15T11:24:18.622Z,18.93
2018-12-15T11:26:46.751Z,19.35
2018-12-15T11:29:14.927Z,19.05
2018-12-15T11:31:43.100Z,19.87
2018-12-15T11:34:11.384Z,20.00
2018-12-15T11:36:39.757Z,19.73
2018-12-15T11:39:08.213Z,18.87
2018-12-15T11:41:36.427Z,20.15
2018-12-15T11:44:04.859Z,19.87
2018-12-15T11:46:33.011Z,21.07
2018-12-15T11:49:01.284Z,21.77
2018-12-15T11:51:29.555Z,22.20
2018-12-15T11:53:57.682Z,20.97
2018-12-15T11:56:25.957Z,18.12
2018-12-15T11:58:54.155Z,20.37
2018-12-15T12:01:22.387Z,21.62
2018-12-15T12:03:50.579Z,21.50
2018-12-15T12:06:18.751Z,20.62
2018-12-15T12:08:46.927Z,21.15
2018-12-15T12:11:15.205Z,20.70
2018-12-15T12:13:43.385Z,21.90
2018-12-15T12:16:11.688Z,20.88
2018-12-15T12:18:39.875Z,19.52
2018-12-15T12:21:08.022Z,20.17
2018-12-15T12:23:36.288Z,21.48
2018-12-15T12:26:04.467Z,20.00
2018-12-15T12:28:32.594Z,20.82
2018-12-15T12:31:00.760Z,20.70
2018-12-15T12:33:28.964Z,21.90
2018-12-15T12:35:57.146Z,21.23
2018-12-15T12:38:25.295Z,22.32
2018-12-15T12:40:54.010Z,22.53
2018-12-15T12:43:22.271Z,22.05
2018-12-15T12:45:50.459Z,20.60
2018-12-15T12:48:18.667Z,20.65
2018-12-15T12:50:46.859Z,19.73
2018-12-15T12:53:15.107Z,20.92
2018-12-15T12:55:43.388Z,21.10
2018-12-15T12:58:11.552Z,20.70
2018-12-15T13:00:39.727Z,21.60
2018-12-15T13:03:07.895Z,20.43
2018-12-15T13:05:36.074Z,20.15
2018-12-15T13:08:04.381Z,19.67
2018-12-15T13:10:32.499Z,20.62
2018-12-15T13:13:00.672Z,21.27
2018-12-15T13:15:28.851Z,21.85
2018-12-15T13:17:57.011Z,22.73
2018-12-15T13:20:25.143Z,20.85
2018-12-15T13:22:53.354Z,22.20
2018-12-15T13:25:21.484Z,21.23
2018-12-15T13:27:49.671Z,19.85
2018-12-15T13:30:17.887Z,21.87
2018-12-15T13:32:46.063Z,21.97
2018-12-15T13:35:14.318Z,20.35
2018-12-15T13:37:42.476Z,21.80
2018-12-15T13:40:11.026Z,20.48
2018-12-15T13:42:39.184Z,20.67
2018-12-15T13:45:07.560Z,20.10
2018-12-15T13:47:35.753Z,21.55
2018-12-15T13:50:10.125Z,21.17
2018-12-15T13:52:36.515Z,19.30
2018-12-15T13:55:05.279Z,21.37
2018-12-15T13:57:33.431Z,19.67
2018-12-15T14:00:01.686Z,21.15
2018-12-15T14:02:30.801Z,21.50
2018-12-15T14:04:59.222Z,21.40
2018-12-15T14:07:27.508Z,18.60
2018-12-15T14:09:55.695Z,20.50
2018-12-15T14:12:23.874Z,20.48
2018-12-15T14:14:52.054Z,21.55
2018-12-15T14:17:20.275Z,21.00
2018-12-15T14:19:48.491Z,19.87
2018-12-15T14:22:16.662Z,19.50
2018-12-15T14:24:44.920Z,19.37
2018-12-15T14:27:13.067Z,17.98
2018-12-15T14:29:41.256Z,18.48
2018-12-15T14:32:09.399Z,20.48
2018-12-15T14:34:37.588Z,19.95
2018-12-15T14:37:05.780Z,20.32
2018-12-15T14:39:34.073Z,20.05
2018-12-15T14:42:02.307Z,19.80
2018-12-15T14:44:30.459Z,22.42
2018-12-15T14:46:58.807Z,19.77
2018-12-15T14:49:27.022Z,20.70
2018-12-15T14:51:55.203Z,20.73
2018-12-15T14:54:23.447Z,20.25
2018-12-15T14:56:51.710Z,20.60
2018-12-15T14:59:19.927Z,20.90
2018-12-15T15:01:48.079Z,20.92
2018-12-15T15:04:16.269Z,19.00
2018-12-15T15:06:44.520Z,19.47
2018-12-15T15:09:12.695Z,21.30
2018-12-15T15:11:41.384Z,19.12
2018-12-15T15:14:09.835Z,21.52
2018-12-15T15:16:38.008Z,18.48
2018-12-15T15:19:06.243Z,20.05
2018-12-15T15:21:34.475Z,21.50
2018-12-15T15:24:02.652Z,20.82
2018-12-15T15:26:31.759Z,19.42
2018-12-15T15:28:59.887Z,23.30
2018-12-15T15:31:28.042Z,20.82
2018-12-15T15:33:56.206Z,18.85
2018-12-15T15:36:24.431Z,18.98
2018-12-15T15:38:52.669Z,20.82
2018-12-15T15:41:20.851Z,20.85
2018-12-15T15:43:49.051Z,20.30
2018-12-15T15:46:17.168Z,19.90
2018-12-15T15:48:45.348Z,19.90
2018-12-15T15:51:13.517Z,20.12
2018-12-15T15:53:41.864Z,21.60
2018-12-15T15:56:10.043Z,19.80
2018-12-15T15:58:38.179Z,21.60
2018-12-15T16:01:06.423Z,21.85
2018-12-15T16:03:35.644Z,20.10
2018-12-15T16:06:03.934Z,22.52
2018-12-15T16:08:32.075Z,20.57
2018-12-15T16:11:00.272Z,21.95
2018-12-15T16:13:28.409Z,22.75
2018-12-15T16:15:56.652Z,22.42
2018-12-15T16:18:24.902Z,22.70
2018-12-15T16:20:53.187Z,20.83
2018-12-15T16:23:21.337Z,21.20
2018-12-15T16:25:49.943Z,19.73
2018-12-15T16:28:18.132Z,22.15
2018-12-15T16:30:46.337Z,21.30
2018-12-15T16:33:14.647Z,20.20
2018-12-15T16:35:42.993Z,22.03
2018-12-15T16:38:11.216Z,19.73
2018-12-15T16:40:39.367Z,21.23
2018-12-15T16:43:07.475Z,20.32
2018-12-15T16:45:35.828Z,21.27
2018-12-15T16:48:04.096Z,21.70
2018-12-15T16:50:32.219Z,19.20
2018-12-15T16:53:00.463Z,19.62
2018-12-15T16:55:28.964Z,20.50
2018-12-15T16:57:57.159Z,21.07
2018-12-15T17:00:25.435Z,20.48
2018-12-15T17:02:53.544Z,19.30
2018-12-15T17:05:22.204Z,18.67
2018-12-15T17:07:50.435Z,19.00
2018-12-15T17:10:18.579Z,19.80
2018-12-15T17:12:46.858Z,19.60
2018-12-15T17:15:15.139Z,23.05
2018-12-15T17:17:43.337Z,19.40
2018-12-15T17:20:12.040Z,21.57
2018-12-15T17:22:40.211Z,21.65
2018-12-15T17:25:09.127Z,22.73
2018-12-15T17:27:37.291Z,21.70
2018-12-15T17:30:07.575Z,20.10
2018-12-15T17:32:35.853Z,20.00
2018-12-15T17:35:04.867Z,20.68
2018-12-15T17:37:33.036Z,20.20
2018-12-15T17:40:01.243Z,19.95
2018-12-15T17:42:29.388Z,19.05
2018-12-15T17:44:57.566Z,20.08
2018-12-15T17:47:25.738Z,20.43
2018-12-15T17:49:54.488Z,20.50
2018-12-15T17:52:22.627Z,19.90
2018-12-15T17:54:50.903Z,19.62
2018-12-15T17:57:19.043Z,20.12
2018-12-15T17:59:47.340Z,20.17
2018-12-15T18:02:15.459Z,22.67
2018-12-15T18:04:43.655Z,19.52
2018-12-15T18:07:11.895Z,19.60
2018-12-15T18:09:40.200Z,20.20
2018-12-15T18:12:08.608Z,20.25
2018-12-15T18:14:36.768Z,20.80
2018-12-15T18:17:05.093Z,17.90
2018-12-15T18:19:33.883Z,21.57
2018-12-15T18:22:02.038Z,21.05
2018-12-15T18:24:30.252Z,19.53
2018-12-15T18:26:58.421Z,21.37
2018-12-15T18:29:26.605Z,20.97
2018-12-15T18:31:54.783Z,21.43
2018-12-15T18:34:22.931Z,21.10
2018-12-15T18:36:51.078Z,19.95
2018-12-15T18:39:19.587Z,20.90
2018-12-15T18:41:47.744Z,19.32
2018-12-15T18:44:15.885Z,21.80
2018-12-15T18:46:44.134Z,21.30
2018-12-15T18:49:12.279Z,20.37
2018-12-15T18:51:40.443Z,18.95
2018-12-15T18:54:08.617Z,22.37
2018-12-15T18:56:36.889Z,21.17
2018-12-15T18:59:05.623Z,20.00
2018-12-15T19:01:33.843Z,21.07
2018-12-15T19:04:02.023Z,20.97
2018-12-15T19:11:25.162Z,21.45
2018-12-15T19:13:53.468Z,19.07
2018-12-15T19:16:21.595Z,21.17
2018-12-15T19:18:49.803Z,21.20
2018-12-15T19:21:22.908Z,21.10
2018-12-15T19:23:48.094Z,22.30
2018-12-15T19:26:16.233Z,22.85
2018-12-15T19:33:39.411Z,21.25
2018-12-15T19:36:07.599Z,20.70
2018-12-15T19:38:35.755Z,22.65
2018-12-15T19:41:03.962Z,22.20
2018-12-15T19:50:54.855Z,21.73
2018-12-15T19:53:23.022Z,21.37
2018-12-15T19:55:51.204Z,22.30
2018-12-15T19:58:19.395Z,22.10
2018-12-15T20:00:47.649Z,21.65
2018-12-15T20:03:15.872Z,22.20
2018-12-15T20:05:44.040Z,22.40
2018-12-15T20:08:12.251Z,22.52
2018-12-15T20:10:40.445Z,22.45
2018-12-15T20:13:08.688Z,21.15
2018-12-15T20:15:36.847Z,22.05
2018-12-15T20:18:04.995Z,22.40
2018-12-15T20:20:33.189Z,21.50
2018-12-15T20:23:01.413Z,22.17
2018-12-15T20:25:29.681Z,19.95
2018-12-15T20:27:57.859Z,21.45
2018-12-15T20:30:26.036Z,21.10
2018-12-15T20:32:54.247Z,20.30
2018-12-15T20:35:22.409Z,19.70
2018-12-15T20:37:50.560Z,20.05
2018-12-15T20:42:46.218Z,21.95
2018-12-15T20:45:14.456Z,20.33
2018-12-15T20:47:42.624Z,18.70
2018-12-15T20:52:38.203Z,19.00
2018-12-15T20:55:06.742Z,19.40
2018-12-15T20:57:34.983Z,20.00
2018-12-15T21:02:30.649Z,18.67
2018-12-15T21:04:58.801Z,19.55
2018-12-15T21:07:27.022Z,18.70
2018-12-15T21:09:55.507Z,19.05
2018-12-15T21:12:23.655Z,17.45
2018-12-15T21:14:51.928Z,20.80
2018-12-15T21:17:20.071Z,21.10
2018-12-15T21:19:48.342Z,19.73
2018-12-15T21:22:16.778Z,20.00
2018-12-15T21:24:44.959Z,20.40
2018-12-15T21:27:13.107Z,19.62
2018-12-15T21:32:08.863Z,19.87
2018-12-15T21:34:37.044Z,20.55
2018-12-15T21:37:05.587Z,18.23
2018-12-15T21:42:01.271Z,19.73
2018-12-15T21:44:29.586Z,19.45
2018-12-15T21:49:25.525Z,17.80
2018-12-15T21:51:56.327Z,17.30
2018-12-15T21:54:24.239Z,18.05
2018-12-15T21:56:52.656Z,16.80
2018-12-15T21:59:20.819Z,17.45
2018-12-15T22:01:49.215Z,17.55
2018-12-15T22:04:17.634Z,15.93
2018-12-15T22:06:45.831Z,17.95
2018-12-15T22:11:41.499Z,16.60
2018-12-15T22:16:37.476Z,17.10
2018-12-15T22:19:05.611Z,16.50
2018-12-15T22:21:33.810Z,15.23
2018-12-15T22:24:02.040Z,16.80
2018-12-15T22:26:30.239Z,15.95
2018-12-15T22:28:58.407Z,17.65
2018-12-15T22:31:26.539Z,15.05
2018-12-15T22:33:54.703Z,15.80
2018-12-15T22:36:22.904Z,15.20
2018-12-15T22:38:51.023Z,17.67
2018-12-15T22:41:19.471Z,16.50
2018-12-15T22:43:47.615Z,16.27
2018-12-15T22:46:15.811Z,16.75
2018-12-15T22:48:44.081Z,16.27
2018-12-15T22:53:39.964Z,15.40
2018-12-15T22:56:08.140Z,15.45
2018-12-15T23:03:36.799Z,15.90
2018-12-15T23:06:05.033Z,16.25
2018-12-15T23:08:33.319Z,15.90
2018-12-15T23:13:29.142Z,16.20
2018-12-15T23:15:57.575Z,16.25
2018-12-15T23:18:25.760Z,17.30
2018-12-15T23:20:53.967Z,16.15
2018-12-15T23:23:22.126Z,16.42
2018-12-15T23:25:50.299Z,16.45
2018-12-15T23:28:18.444Z,17.80
2018-12-15T23:30:46.610Z,18.40
2018-12-15T23:33:14.791Z,17.40
2018-12-15T23:38:10.623Z,16.80
2018-12-15T23:43:06.272Z,15.80
2018-12-15T23:45:34.412Z,16.73
2018-12-15T23:48:02.662Z,16.70
2018-12-15T23:50:30.882Z,16.70
2018-12-15T23:52:59.194Z,16.17
2018-12-15T23:55:27.366Z,16.40
